sensor_id;sensor_type;location;lat;lon;timestamp;P1;durP1;ratioP1;P2;durP2;ratioP2
22270;SDS011;11304;53.520;10.104;2023-05-10T00:01:41;5.90;;;3.22;;
22270;SDS011;11304;53.520;10.104;2023-05-10T00:04:07;14.93;;;3.38;;
22270;SDS011;11304;53.520;10.104;2023-05-10T00:06:33;7.47;;;3.58;;
22270;SDS011;11304;53.520;10.104;2023-05-10T00:08:59;9.07;;;3.50;;
22270;SDS011;11304;53.520;10.104;2023-05-10T00:11:25;6.15;;;3.10;;
22270;SDS011;11304;53.520;10.104;2023-05-10T00:13:51;7.18;;;3.55;;
22270;SDS011;11304;53.520;10.104;2023-05-10T00:16:17;5.40;;;3.30;;
22270;SDS011;11304;53.520;10.104;2023-05-10T00:18:44;5.93;;;3.10;;
22270;SDS011;11304;53.520;10.104;2023-05-10T00:21:10;6.45;;;3.22;;
22270;SDS011;11304;53.520;10.104;2023-05-10T00:23:36;4.95;;;3.20;;
22270;SDS011;11304;53.520;10.104;2023-05-10T00:26:02;4.35;;;2.88;;
22270;SDS011;11304;53.520;10.104;2023-05-10T00:28:29;9.63;;;3.50;;
22270;SDS011;11304;53.520;10.104;2023-05-10T00:30:55;6.18;;;3.30;;
22270;SDS011;11304;53.520;10.104;2023-05-10T00:33:21;7.32;;;3.17;;
22270;SDS011;11304;53.520;10.104;2023-05-10T00:35:47;5.47;;;3.83;;
22270;SDS011;11304;53.520;10.104;2023-05-10T00:38:13;5.53;;;3.65;;
22270;SDS011;11304;53.520;10.104;2023-05-10T00:40:39;6.43;;;3.55;;
22270;SDS011;11304;53.520;10.104;2023-05-10T00:43:05;7.88;;;3.67;;
22270;SDS011;11304;53.520;10.104;2023-05-10T00:45:32;5.28;;;3.47;;
22270;SDS011;11304;53.520;10.104;2023-05-10T00:48:02;5.70;;;3.30;;
22270;SDS011;11304;53.520;10.104;2023-05-10T00:50:28;6.40;;;3.58;;
22270;SDS011;11304;53.520;10.104;2023-05-10T00:52:55;6.50;;;3.40;;
22270;SDS011;11304;53.520;10.104;2023-05-10T00:55:22;5.70;;;3.20;;
22270;SDS011;11304;53.520;10.104;2023-05-10T00:57:48;6.10;;;3.90;;
22270;SDS011;11304;53.520;10.104;2023-05-10T01:00:14;6.82;;;3.38;;
22270;SDS011;11304;53.520;10.104;2023-05-10T01:02:44;5.65;;;3.35;;
22270;SDS011;11304;53.520;10.104;2023-05-10T01:05:11;7.50;;;3.53;;
22270;SDS011;11304;53.520;10.104;2023-05-10T01:07:37;8.90;;;3.63;;
22270;SDS011;11304;53.520;10.104;2023-05-10T01:10:04;4.72;;;3.25;;
22270;SDS011;11304;53.520;10.104;2023-05-10T01:12:30;8.77;;;3.67;;
22270;SDS011;11304;53.520;10.104;2023-05-10T01:14:57;6.30;;;3.83;;
22270;SDS011;11304;53.520;10.104;2023-05-10T01:17:23;8.38;;;3.70;;
22270;SDS011;11304;53.520;10.104;2023-05-10T01:19:50;5.05;;;3.10;;
22270;SDS011;11304;53.520;10.104;2023-05-10T01:35:13;10.88;;;3.50;;
22270;SDS011;11304;53.520;10.104;2023-05-10T01:37:44;8.65;;;3.78;;
22270;SDS011;11304;53.520;10.104;2023-05-10T01:42:43;6.85;;;3.33;;
22270;SDS011;11304;53.520;10.104;2023-05-10T01:47:39;5.68;;;3.25;;
22270;SDS011;11304;53.520;10.104;2023-05-10T01:50:06;6.20;;;3.60;;
22270;SDS011;11304;53.520;10.104;2023-05-10T01:52:42;5.43;;;3.60;;
22270;SDS011;11304;53.520;10.104;2023-05-10T01:55:13;8.30;;;3.60;;
22270;SDS011;11304;53.520;10.104;2023-05-10T01:57:40;6.47;;;3.45;;
22270;SDS011;11304;53.520;10.104;2023-05-10T02:00:08;5.00;;;3.22;;
22270;SDS011;11304;53.520;10.104;2023-05-10T02:02:37;7.30;;;3.50;;
22270;SDS011;11304;53.520;10.104;2023-05-10T02:05:03;8.48;;;3.83;;
22270;SDS011;11304;53.520;10.104;2023-05-10T02:07:31;5.65;;;3.53;;
22270;SDS011;11304;53.520;10.104;2023-05-10T02:09:58;7.15;;;3.97;;
22270;SDS011;11304;53.520;10.104;2023-05-10T02:12:24;4.97;;;3.80;;
22270;SDS011;11304;53.520;10.104;2023-05-10T02:14:52;9.05;;;3.60;;
22270;SDS011;11304;53.520;10.104;2023-05-10T02:17:18;5.68;;;4.00;;
22270;SDS011;11304;53.520;10.104;2023-05-10T02:19:45;6.13;;;3.53;;
22270;SDS011;11304;53.520;10.104;2023-05-10T02:22:13;8.50;;;3.80;;
22270;SDS011;11304;53.520;10.104;2023-05-10T02:24:39;4.90;;;3.67;;
22270;SDS011;11304;53.520;10.104;2023-05-10T02:27:05;8.38;;;3.67;;
22270;SDS011;11304;53.520;10.104;2023-05-10T02:29:32;5.13;;;3.42;;
22270;SDS011;11304;53.520;10.104;2023-05-10T02:31:58;5.88;;;3.72;;
22270;SDS011;11304;53.520;10.104;2023-05-10T02:34:25;6.93;;;3.75;;
22270;SDS011;11304;53.520;10.104;2023-05-10T02:36:52;7.68;;;3.65;;
22270;SDS011;11304;53.520;10.104;2023-05-10T02:39:19;7.53;;;3.30;;
22270;SDS011;11304;53.520;10.104;2023-05-10T02:41:45;10.68;;;3.50;;
22270;SDS011;11304;53.520;10.104;2023-05-10T02:44:12;7.57;;;3.75;;
22270;SDS011;11304;53.520;10.104;2023-05-10T02:46:40;7.73;;;3.87;;
22270;SDS011;11304;53.520;10.104;2023-05-10T02:49:06;6.22;;;3.45;;
22270;SDS011;11304;53.520;10.104;2023-05-10T02:51:34;10.07;;;3.95;;
22270;SDS011;11304;53.520;10.104;2023-05-10T02:54:06;7.63;;;3.65;;
22270;SDS011;11304;53.520;10.104;2023-05-10T02:56:35;7.82;;;3.72;;
22270;SDS011;11304;53.520;10.104;2023-05-10T02:59:04;7.45;;;3.70;;
22270;SDS011;11304;53.520;10.104;2023-05-10T03:01:30;5.97;;;3.70;;
22270;SDS011;11304;53.520;10.104;2023-05-10T03:03:56;6.43;;;3.78;;
22270;SDS011;11304;53.520;10.104;2023-05-10T03:06:22;5.15;;;3.70;;
22270;SDS011;11304;53.520;10.104;2023-05-10T03:08:48;5.82;;;3.75;;
22270;SDS011;11304;53.520;10.104;2023-05-10T03:16:29;10.27;;;3.50;;
22270;SDS011;11304;53.520;10.104;2023-05-10T03:18:58;7.13;;;4.00;;
22270;SDS011;11304;53.520;10.104;2023-05-10T03:21:28;4.38;;;3.60;;
22270;SDS011;11304;53.520;10.104;2023-05-10T03:24:13;4.70;;;3.40;;
22270;SDS011;11304;53.520;10.104;2023-05-10T03:26:40;5.65;;;3.72;;
22270;SDS011;11304;53.520;10.104;2023-05-10T03:29:10;9.63;;;4.07;;
22270;SDS011;11304;53.520;10.104;2023-05-10T03:31:38;5.70;;;3.47;;
22270;SDS011;11304;53.520;10.104;2023-05-10T03:34:04;6.88;;;3.60;;
22270;SDS011;11304;53.520;10.104;2023-05-10T03:36:31;5.90;;;3.85;;
22270;SDS011;11304;53.520;10.104;2023-05-10T03:38:57;7.70;;;3.95;;
22270;SDS011;11304;53.520;10.104;2023-05-10T03:41:23;5.88;;;3.90;;
22270;SDS011;11304;53.520;10.104;2023-05-10T03:43:50;9.43;;;3.95;;
22270;SDS011;11304;53.520;10.104;2023-05-10T03:46:16;8.30;;;4.28;;
22270;SDS011;11304;53.520;10.104;2023-05-10T03:48:42;7.25;;;3.70;;
22270;SDS011;11304;53.520;10.104;2023-05-10T03:51:09;6.00;;;4.13;;
22270;SDS011;11304;53.520;10.104;2023-05-10T03:53:35;14.38;;;4.10;;
22270;SDS011;11304;53.520;10.104;2023-05-10T03:56:01;8.80;;;3.97;;
22270;SDS011;11304;53.520;10.104;2023-05-10T03:58:27;8.82;;;4.32;;
22270;SDS011;11304;53.520;10.104;2023-05-10T04:00:53;9.63;;;4.20;;
22270;SDS011;11304;53.520;10.104;2023-05-10T04:03:20;6.68;;;3.97;;
22270;SDS011;11304;53.520;10.104;2023-05-10T04:05:46;14.70;;;4.15;;
22270;SDS011;11304;53.520;10.104;2023-05-10T04:08:12;24.25;;;4.88;;
22270;SDS011;11304;53.520;10.104;2023-05-10T04:10:41;9.88;;;4.00;;
22270;SDS011;11304;53.520;10.104;2023-05-10T04:13:07;29.77;;;5.75;;
22270;SDS011;11304;53.520;10.104;2023-05-10T04:15:33;15.02;;;4.47;;
22270;SDS011;11304;53.520;10.104;2023-05-10T04:18:00;17.17;;;4.65;;
22270;SDS011;11304;53.520;10.104;2023-05-10T04:20:26;15.68;;;4.70;;
22270;SDS011;11304;53.520;10.104;2023-05-10T04:22:52;11.32;;;4.60;;
22270;SDS011;11304;53.520;10.104;2023-05-10T04:25:18;6.47;;;4.00;;
22270;SDS011;11304;53.520;10.104;2023-05-10T04:27:45;38.53;;;5.85;;
22270;SDS011;11304;53.520;10.104;2023-05-10T04:30:11;14.35;;;3.95;;
22270;SDS011;11304;53.520;10.104;2023-05-10T04:32:37;13.45;;;4.63;;
22270;SDS011;11304;53.520;10.104;2023-05-10T04:35:03;34.45;;;6.82;;
22270;SDS011;11304;53.520;10.104;2023-05-10T04:37:29;15.20;;;4.70;;
22270;SDS011;11304;53.520;10.104;2023-05-10T04:39:56;21.75;;;4.68;;
22270;SDS011;11304;53.520;10.104;2023-05-10T04:42:22;17.75;;;4.18;;
22270;SDS011;11304;53.520;10.104;2023-05-10T04:44:48;33.83;;;6.15;;
22270;SDS011;11304;53.520;10.104;2023-05-10T04:47:14;48.38;;;5.95;;
22270;SDS011;11304;53.520;10.104;2023-05-10T04:49:41;16.40;;;4.40;;
22270;SDS011;11304;53.520;10.104;2023-05-10T04:52:07;8.20;;;3.88;;
22270;SDS011;11304;53.520;10.104;2023-05-10T04:54:33;7.03;;;4.18;;
22270;SDS011;11304;53.520;10.104;2023-05-10T04:56:59;16.02;;;4.97;;
22270;SDS011;11304;53.520;10.104;2023-05-10T04:59:25;11.32;;;4.13;;
22270;SDS011;11304;53.520;10.104;2023-05-10T05:01:52;10.15;;;4.47;;
22270;SDS011;11304;53.520;10.104;2023-05-10T05:04:18;14.45;;;5.03;;
22270;SDS011;11304;53.520;10.104;2023-05-10T05:06:44;12.95;;;4.60;;
22270;SDS011;11304;53.520;10.104;2023-05-10T05:09:10;16.45;;;4.18;;
22270;SDS011;11304;53.520;10.104;2023-05-10T05:11:36;12.45;;;4.13;;
22270;SDS011;11304;53.520;10.104;2023-05-10T05:14:02;8.65;;;4.45;;
22270;SDS011;11304;53.520;10.104;2023-05-10T05:16:30;10.63;;;4.68;;
22270;SDS011;11304;53.520;10.104;2023-05-10T05:18:57;22.75;;;4.50;;
22270;SDS011;11304;53.520;10.104;2023-05-10T05:21:23;15.43;;;4.57;;
22270;SDS011;11304;53.520;10.104;2023-05-10T05:23:50;8.73;;;3.90;;
22270;SDS011;11304;53.520;10.104;2023-05-10T05:26:16;12.32;;;4.32;;
22270;SDS011;11304;53.520;10.104;2023-05-10T05:28:42;11.25;;;4.38;;
22270;SDS011;11304;53.520;10.104;2023-05-10T05:31:08;7.80;;;3.97;;
22270;SDS011;11304;53.520;10.104;2023-05-10T05:33:34;5.05;;;3.58;;
22270;SDS011;11304;53.520;10.104;2023-05-10T05:36:01;6.95;;;3.92;;
22270;SDS011;11304;53.520;10.104;2023-05-10T05:38:27;6.90;;;4.18;;
22270;SDS011;11304;53.520;10.104;2023-05-10T05:40:53;6.63;;;4.07;;
22270;SDS011;11304;53.520;10.104;2023-05-10T05:43:19;5.85;;;4.07;;
22270;SDS011;11304;53.520;10.104;2023-05-10T05:45:45;6.05;;;3.85;;
22270;SDS011;11304;53.520;10.104;2023-05-10T05:48:11;13.70;;;4.50;;
22270;SDS011;11304;53.520;10.104;2023-05-10T05:50:38;6.60;;;3.72;;
22270;SDS011;11304;53.520;10.104;2023-05-10T05:53:04;15.82;;;4.30;;
22270;SDS011;11304;53.520;10.104;2023-05-10T05:55:30;12.65;;;3.85;;
22270;SDS011;11304;53.520;10.104;2023-05-10T05:57:56;6.30;;;3.67;;
22270;SDS011;11304;53.520;10.104;2023-05-10T06:00:23;16.67;;;4.80;;
22270;SDS011;11304;53.520;10.104;2023-05-10T06:02:49;14.82;;;4.20;;
22270;SDS011;11304;53.520;10.104;2023-05-10T06:05:15;25.60;;;5.07;;
22270;SDS011;11304;53.520;10.104;2023-05-10T06:07:41;5.55;;;3.80;;
22270;SDS011;11304;53.520;10.104;2023-05-10T06:10:08;6.05;;;3.78;;
22270;SDS011;11304;53.520;10.104;2023-05-10T06:12:34;14.25;;;4.30;;
22270;SDS011;11304;53.520;10.104;2023-05-10T06:15:00;13.88;;;4.70;;
22270;SDS011;11304;53.520;10.104;2023-05-10T06:17:26;9.93;;;3.80;;
22270;SDS011;11304;53.520;10.104;2023-05-10T06:19:53;11.23;;;4.47;;
22270;SDS011;11304;53.520;10.104;2023-05-10T06:22:19;9.38;;;4.13;;
22270;SDS011;11304;53.520;10.104;2023-05-10T06:24:47;11.10;;;4.53;;
22270;SDS011;11304;53.520;10.104;2023-05-10T06:27:13;7.57;;;3.83;;
22270;SDS011;11304;53.520;10.104;2023-05-10T06:29:40;10.60;;;3.97;;
22270;SDS011;11304;53.520;10.104;2023-05-10T06:32:06;6.60;;;4.22;;
22270;SDS011;11304;53.520;10.104;2023-05-10T06:34:32;10.75;;;4.22;;
22270;SDS011;11304;53.520;10.104;2023-05-10T06:36:58;4.50;;;3.80;;
22270;SDS011;11304;53.520;10.104;2023-05-10T06:39:24;5.88;;;3.88;;
22270;SDS011;11304;53.520;10.104;2023-05-10T06:41:50;5.32;;;4.10;;
22270;SDS011;11304;53.520;10.104;2023-05-10T06:44:17;9.43;;;4.05;;
22270;SDS011;11304;53.520;10.104;2023-05-10T06:46:43;6.65;;;3.75;;
22270;SDS011;11304;53.520;10.104;2023-05-10T06:49:09;7.75;;;4.07;;
22270;SDS011;11304;53.520;10.104;2023-05-10T06:51:35;7.68;;;4.05;;
22270;SDS011;11304;53.520;10.104;2023-05-10T06:54:02;7.85;;;3.90;;
22270;SDS011;11304;53.520;10.104;2023-05-10T06:56:28;7.50;;;4.43;;
22270;SDS011;11304;53.520;10.104;2023-05-10T06:58:54;9.48;;;4.55;;
22270;SDS011;11304;53.520;10.104;2023-05-10T07:01:20;5.80;;;4.63;;
22270;SDS011;11304;53.520;10.104;2023-05-10T07:03:47;6.30;;;4.32;;
22270;SDS011;11304;53.520;10.104;2023-05-10T07:06:13;8.90;;;4.32;;
22270;SDS011;11304;53.520;10.104;2023-05-10T07:08:39;6.07;;;4.32;;
22270;SDS011;11304;53.520;10.104;2023-05-10T07:11:06;9.43;;;4.25;;
22270;SDS011;11304;53.520;10.104;2023-05-10T07:13:32;7.05;;;4.07;;
22270;SDS011;11304;53.520;10.104;2023-05-10T07:15:59;7.07;;;4.85;;
22270;SDS011;11304;53.520;10.104;2023-05-10T07:18:25;7.85;;;4.65;;
22270;SDS011;11304;53.520;10.104;2023-05-10T07:20:52;10.75;;;4.05;;
22270;SDS011;11304;53.520;10.104;2023-05-10T07:23:18;6.45;;;4.25;;
22270;SDS011;11304;53.520;10.104;2023-05-10T08:11:58;7.55;;;4.55;;
22270;SDS011;11304;53.520;10.104;2023-05-10T08:14:25;8.02;;;4.03;;
22270;SDS011;11304;53.520;10.104;2023-05-10T08:55:55;5.90;;;4.20;;
22270;SDS011;11304;53.520;10.104;2023-05-10T08:58:21;18.80;;;5.88;;
22270;SDS011;11304;53.520;10.104;2023-05-10T09:00:48;5.47;;;4.30;;
22270;SDS011;11304;53.520;10.104;2023-05-10T09:03:15;8.30;;;4.28;;
22270;SDS011;11304;53.520;10.104;2023-05-10T09:05:42;5.22;;;3.95;;
22270;SDS011;11304;53.520;10.104;2023-05-10T09:08:09;6.00;;;3.83;;
22270;SDS011;11304;53.520;10.104;2023-05-10T09:10:36;7.72;;;4.60;;
22270;SDS011;11304;53.520;10.104;2023-05-10T09:13:04;7.03;;;4.05;;
22270;SDS011;11304;53.520;10.104;2023-05-10T09:15:30;5.82;;;3.75;;
22270;SDS011;11304;53.520;10.104;2023-05-10T09:17:56;6.50;;;4.18;;
22270;SDS011;11304;53.520;10.104;2023-05-10T09:20:24;6.97;;;4.15;;
22270;SDS011;11304;53.520;10.104;2023-05-10T09:22:50;5.80;;;4.10;;
22270;SDS011;11304;53.520;10.104;2023-05-10T09:25:16;8.35;;;4.25;;
22270;SDS011;11304;53.520;10.104;2023-05-10T09:27:46;8.70;;;4.45;;
22270;SDS011;11304;53.520;10.104;2023-05-10T09:30:16;7.47;;;4.22;;
22270;SDS011;11304;53.520;10.104;2023-05-10T09:32:43;5.47;;;4.45;;
22270;SDS011;11304;53.520;10.104;2023-05-10T09:35:12;11.43;;;4.38;;
22270;SDS011;11304;53.520;10.104;2023-05-10T09:37:39;9.55;;;4.25;;
22270;SDS011;11304;53.520;10.104;2023-05-10T09:40:13;8.15;;;4.00;;
22270;SDS011;11304;53.520;10.104;2023-05-10T09:42:51;5.80;;;4.43;;
22270;SDS011;11304;53.520;10.104;2023-05-10T09:45:17;7.00;;;4.88;;
22270;SDS011;11304;53.520;10.104;2023-05-10T09:47:43;7.93;;;5.07;;
22270;SDS011;11304;53.520;10.104;2023-05-10T09:50:10;5.55;;;4.45;;
22270;SDS011;11304;53.520;10.104;2023-05-10T09:52:46;7.70;;;5.25;;
22270;SDS011;11304;53.520;10.104;2023-05-10T09:55:12;7.80;;;6.00;;
22270;SDS011;11304;53.520;10.104;2023-05-10T09:57:38;6.65;;;5.72;;
22270;SDS011;11304;53.520;10.104;2023-05-10T10:00:05;7.65;;;5.53;;
22270;SDS011;11304;53.520;10.104;2023-05-10T10:02:31;6.10;;;5.03;;
22270;SDS011;11304;53.520;10.104;2023-05-10T10:04:58;10.52;;;5.78;;
22270;SDS011;11304;53.520;10.104;2023-05-10T10:07:26;7.13;;;5.72;;
22270;SDS011;11304;53.520;10.104;2023-05-10T10:09:53;11.80;;;6.38;;
22270;SDS011;11304;53.520;10.104;2023-05-10T10:12:19;12.13;;;6.30;;
22270;SDS011;11304;53.520;10.104;2023-05-10T10:14:46;8.68;;;6.60;;
22270;SDS011;11304;53.520;10.104;2023-05-10T10:17:13;8.43;;;6.38;;
22270;SDS011;11304;53.520;10.104;2023-05-10T10:19:39;8.32;;;6.28;;
22270;SDS011;11304;53.520;10.104;2023-05-10T10:22:06;7.93;;;6.25;;
22270;SDS011;11304;53.520;10.104;2023-05-10T10:24:32;9.82;;;7.32;;
22270;SDS011;11304;53.520;10.104;2023-05-10T10:27:04;8.20;;;6.80;;
22270;SDS011;11304;53.520;10.104;2023-05-10T10:34:49;8.35;;;6.30;;
22270;SDS011;11304;53.520;10.104;2023-05-10T10:37:15;9.35;;;8.27;;
22270;SDS011;11304;53.520;10.104;2023-05-10T10:39:42;11.73;;;8.35;;
22270;SDS011;11304;53.520;10.104;2023-05-10T10:42:08;13.00;;;7.88;;
22270;SDS011;11304;53.520;10.104;2023-05-10T10:44:35;11.20;;;7.90;;
22270;SDS011;11304;53.520;10.104;2023-05-10T10:47:04;10.65;;;7.78;;
22270;SDS011;11304;53.520;10.104;2023-05-10T10:52:22;10.85;;;7.18;;
22270;SDS011;11304;53.520;10.104;2023-05-10T10:54:58;11.60;;;7.78;;
22270;SDS011;11304;53.520;10.104;2023-05-10T10:57:25;8.82;;;6.75;;
22270;SDS011;11304;53.520;10.104;2023-05-10T10:59:53;11.57;;;7.45;;
22270;SDS011;11304;53.520;10.104;2023-05-10T11:02:33;8.73;;;7.82;;
22270;SDS011;11304;53.520;10.104;2023-05-10T11:05:00;11.02;;;7.82;;
22270;SDS011;11304;53.520;10.104;2023-05-10T11:07:56;9.60;;;7.80;;
22270;SDS011;11304;53.520;10.104;2023-05-10T11:10:22;10.23;;;7.70;;
22270;SDS011;11304;53.520;10.104;2023-05-10T11:15:34;13.20;;;7.90;;
22270;SDS011;11304;53.520;10.104;2023-05-10T11:21:03;9.93;;;7.72;;
22270;SDS011;11304;53.520;10.104;2023-05-10T11:26:09;10.80;;;7.82;;
22270;SDS011;11304;53.520;10.104;2023-05-10T11:28:41;8.63;;;7.82;;
22270;SDS011;11304;53.520;10.104;2023-05-10T11:31:07;12.02;;;7.70;;
22270;SDS011;11304;53.520;10.104;2023-05-10T11:34:06;8.68;;;7.80;;
22270;SDS011;11304;53.520;10.104;2023-05-10T11:36:29;9.55;;;8.35;;
22270;SDS011;11304;53.520;10.104;2023-05-10T11:38:56;9.68;;;8.23;;
22270;SDS011;11304;53.520;10.104;2023-05-10T11:41:22;8.85;;;7.75;;
22270;SDS011;11304;53.520;10.104;2023-05-10T11:43:49;10.32;;;8.35;;
22270;SDS011;11304;53.520;10.104;2023-05-10T11:46:16;12.13;;;8.30;;
22270;SDS011;11304;53.520;10.104;2023-05-10T11:48:45;9.88;;;7.65;;
22270;SDS011;11304;53.520;10.104;2023-05-10T11:51:12;9.05;;;8.15;;
22270;SDS011;11304;53.520;10.104;2023-05-10T11:53:38;9.15;;;8.20;;
22270;SDS011;11304;53.520;10.104;2023-05-10T11:56:05;9.80;;;7.88;;
22270;SDS011;11304;53.520;10.104;2023-05-10T11:58:32;11.20;;;9.43;;
22270;SDS011;11304;53.520;10.104;2023-05-10T12:00:58;11.60;;;8.50;;
22270;SDS011;11304;53.520;10.104;2023-05-10T12:03:25;13.00;;;9.02;;
22270;SDS011;11304;53.520;10.104;2023-05-10T12:05:51;10.10;;;8.82;;
22270;SDS011;11304;53.520;10.104;2023-05-10T12:08:20;9.05;;;8.02;;
22270;SDS011;11304;53.520;10.104;2023-05-10T12:10:46;11.00;;;8.57;;
22270;SDS011;11304;53.520;10.104;2023-05-10T12:13:13;9.70;;;8.65;;
22270;SDS011;11304;53.520;10.104;2023-05-10T12:15:40;10.35;;;8.68;;
22270;SDS011;11304;53.520;10.104;2023-05-10T12:18:07;12.60;;;8.43;;
22270;SDS011;11304;53.520;10.104;2023-05-10T12:23:01;9.05;;;7.80;;
22270;SDS011;11304;53.520;10.104;2023-05-10T12:25:34;9.05;;;7.50;;
22270;SDS011;11304;53.520;10.104;2023-05-10T12:28:02;9.40;;;8.27;;
22270;SDS011;11304;53.520;10.104;2023-05-10T12:30:29;9.63;;;8.10;;
22270;SDS011;11304;53.520;10.104;2023-05-10T12:33:00;9.70;;;8.32;;
22270;SDS011;11304;53.520;10.104;2023-05-10T12:35:29;11.00;;;9.15;;
22270;SDS011;11304;53.520;10.104;2023-05-10T12:37:55;9.93;;;8.93;;
22270;SDS011;11304;53.520;10.104;2023-05-10T12:40:21;9.00;;;7.40;;
22270;SDS011;11304;53.520;10.104;2023-05-10T12:42:47;9.60;;;7.28;;
22270;SDS011;11304;53.520;10.104;2023-05-10T12:45:14;9.73;;;8.23;;
22270;SDS011;11304;53.520;10.104;2023-05-10T12:47:40;9.65;;;8.38;;
22270;SDS011;11304;53.520;10.104;2023-05-10T12:50:06;8.23;;;7.43;;
22270;SDS011;11304;53.520;10.104;2023-05-10T12:52:32;10.13;;;7.05;;
22270;SDS011;11304;53.520;10.104;2023-05-10T12:54:59;8.10;;;7.03;;
22270;SDS011;11304;53.520;10.104;2023-05-10T12:57:25;7.43;;;6.15;;
22270;SDS011;11304;53.520;10.104;2023-05-10T12:59:52;6.97;;;6.22;;
22270;SDS011;11304;53.520;10.104;2023-05-10T13:02:18;7.05;;;5.20;;
22270;SDS011;11304;53.520;10.104;2023-05-10T13:04:46;8.63;;;6.07;;
22270;SDS011;11304;53.520;10.104;2023-05-10T13:07:12;8.35;;;6.00;;
22270;SDS011;11304;53.520;10.104;2023-05-10T13:09:38;7.20;;;5.53;;
22270;SDS011;11304;53.520;10.104;2023-05-10T13:12:05;5.85;;;5.22;;
22270;SDS011;11304;53.520;10.104;2023-05-10T13:14:31;5.20;;;4.68;;
22270;SDS011;11304;53.520;10.104;2023-05-10T13:16:57;7.20;;;5.55;;
22270;SDS011;11304;53.520;10.104;2023-05-10T13:19:23;5.18;;;4.68;;
22270;SDS011;11304;53.520;10.104;2023-05-10T13:21:49;5.32;;;4.10;;
22270;SDS011;11304;53.520;10.104;2023-05-10T13:24:15;6.90;;;5.05;;
22270;SDS011;11304;53.520;10.104;2023-05-10T13:26:42;5.63;;;5.03;;
22270;SDS011;11304;53.520;10.104;2023-05-10T13:29:09;5.80;;;5.20;;
22270;SDS011;11304;53.520;10.104;2023-05-10T13:31:35;6.88;;;4.65;;
22270;SDS011;11304;53.520;10.104;2023-05-10T13:38:53;5.45;;;4.72;;
22270;SDS011;11304;53.520;10.104;2023-05-10T13:41:19;4.00;;;3.70;;
22270;SDS011;11304;53.520;10.104;2023-05-10T13:43:45;4.72;;;4.03;;
22270;SDS011;11304;53.520;10.104;2023-05-10T13:46:13;4.32;;;3.88;;
22270;SDS011;11304;53.520;10.104;2023-05-10T13:48:40;5.78;;;4.00;;
22270;SDS011;11304;53.520;10.104;2023-05-10T13:51:06;6.28;;;3.92;;
22270;SDS011;11304;53.520;10.104;2023-05-10T13:53:32;4.90;;;4.40;;
22270;SDS011;11304;53.520;10.104;2023-05-10T13:55:58;4.50;;;3.72;;
22270;SDS011;11304;53.520;10.104;2023-05-10T13:58:24;4.70;;;3.88;;
22270;SDS011;11304;53.520;10.104;2023-05-10T14:00:50;4.50;;;4.10;;
22270;SDS011;11304;53.520;10.104;2023-05-10T14:03:16;4.50;;;3.67;;
22270;SDS011;11304;53.520;10.104;2023-05-10T14:05:43;4.30;;;3.80;;
22270;SDS011;11304;53.520;10.104;2023-05-10T14:08:10;4.57;;;4.18;;
22270;SDS011;11304;53.520;10.104;2023-05-10T14:10:38;4.70;;;3.92;;
22270;SDS011;11304;53.520;10.104;2023-05-10T14:13:04;4.47;;;4.07;;
22270;SDS011;11304;53.520;10.104;2023-05-10T14:15:31;4.93;;;3.90;;
22270;SDS011;11304;53.520;10.104;2023-05-10T14:17:57;5.97;;;4.05;;
22270;SDS011;11304;53.520;10.104;2023-05-10T14:20:23;5.63;;;4.05;;
22270;SDS011;11304;53.520;10.104;2023-05-10T14:22:49;5.63;;;4.00;;
22270;SDS011;11304;53.520;10.104;2023-05-10T14:25:15;5.00;;;4.50;;
22270;SDS011;11304;53.520;10.104;2023-05-10T14:27:41;4.97;;;4.38;;
22270;SDS011;11304;53.520;10.104;2023-05-10T14:30:08;4.95;;;4.40;;
22270;SDS011;11304;53.520;10.104;2023-05-10T14:32:34;6.88;;;4.55;;
22270;SDS011;11304;53.520;10.104;2023-05-10T14:35:01;5.88;;;4.47;;
22270;SDS011;11304;53.520;10.104;2023-05-10T14:37:27;4.93;;;4.43;;
22270;SDS011;11304;53.520;10.104;2023-05-10T14:39:54;4.97;;;4.47;;
22270;SDS011;11304;53.520;10.104;2023-05-10T14:42:20;5.35;;;4.85;;
22270;SDS011;11304;53.520;10.104;2023-05-10T14:44:46;5.88;;;4.43;;
22270;SDS011;11304;53.520;10.104;2023-05-10T14:47:12;6.55;;;5.10;;
22270;SDS011;11304;53.520;10.104;2023-05-10T14:49:38;7.90;;;4.72;;
22270;SDS011;11304;53.520;10.104;2023-05-10T14:52:05;6.55;;;5.38;;
22270;SDS011;11304;53.520;10.104;2023-05-10T14:54:32;5.82;;;4.40;;
22270;SDS011;11304;53.520;10.104;2023-05-10T14:56:58;7.00;;;5.28;;
22270;SDS011;11304;53.520;10.104;2023-05-10T14:59:25;5.78;;;5.15;;
22270;SDS011;11304;53.520;10.104;2023-05-10T15:01:51;5.22;;;4.72;;
22270;SDS011;11304;53.520;10.104;2023-05-10T15:04:17;5.50;;;4.72;;
22270;SDS011;11304;53.520;10.104;2023-05-10T15:06:43;6.15;;;5.28;;
22270;SDS011;11304;53.520;10.104;2023-05-10T15:09:10;8.50;;;5.53;;
22270;SDS011;11304;53.520;10.104;2023-05-10T15:11:36;4.90;;;4.40;;
22270;SDS011;11304;53.520;10.104;2023-05-10T15:14:02;5.20;;;4.63;;
22270;SDS011;11304;53.520;10.104;2023-05-10T15:16:28;5.45;;;4.10;;
22270;SDS011;11304;53.520;10.104;2023-05-10T15:18:54;5.72;;;5.22;;
22270;SDS011;11304;53.520;10.104;2023-05-10T15:21:20;5.60;;;5.10;;
22270;SDS011;11304;53.520;10.104;2023-05-10T15:23:46;5.55;;;4.75;;
22270;SDS011;11304;53.520;10.104;2023-05-10T15:26:13;6.75;;;4.43;;
22270;SDS011;11304;53.520;10.104;2023-05-10T15:28:39;6.15;;;4.93;;
22270;SDS011;11304;53.520;10.104;2023-05-10T15:31:05;5.35;;;4.65;;
22270;SDS011;11304;53.520;10.104;2023-05-10T15:33:31;5.20;;;4.55;;
22270;SDS011;11304;53.520;10.104;2023-05-10T15:35:57;5.65;;;4.65;;
22270;SDS011;11304;53.520;10.104;2023-05-10T15:38:23;5.65;;;4.75;;
22270;SDS011;11304;53.520;10.104;2023-05-10T15:40:49;5.18;;;4.55;;
22270;SDS011;11304;53.520;10.104;2023-05-10T15:43:16;5.85;;;5.25;;
22270;SDS011;11304;53.520;10.104;2023-05-10T15:45:42;6.63;;;4.88;;
22270;SDS011;11304;53.520;10.104;2023-05-10T15:48:08;4.90;;;4.40;;
22270;SDS011;11304;53.520;10.104;2023-05-10T15:50:34;5.20;;;4.32;;
22270;SDS011;11304;53.520;10.104;2023-05-10T15:53:00;6.22;;;4.72;;
22270;SDS011;11304;53.520;10.104;2023-05-10T15:55:27;6.57;;;4.50;;
22270;SDS011;11304;53.520;10.104;2023-05-10T15:57:53;4.70;;;3.97;;
22270;SDS011;11304;53.520;10.104;2023-05-10T16:00:19;4.70;;;4.03;;
22270;SDS011;11304;53.520;10.104;2023-05-10T16:02:45;5.18;;;4.15;;
22270;SDS011;11304;53.520;10.104;2023-05-10T16:05:11;5.22;;;4.18;;
22270;SDS011;11304;53.520;10.104;2023-05-10T16:07:37;4.55;;;3.25;;
22270;SDS011;11304;53.520;10.104;2023-05-10T16:10:06;6.03;;;4.30;;
22270;SDS011;11304;53.520;10.104;2023-05-10T16:12:32;5.10;;;4.22;;
22270;SDS011;11304;53.520;10.104;2023-05-10T16:14:58;4.72;;;4.15;;
22270;SDS011;11304;53.520;10.104;2023-05-10T16:17:24;5.32;;;4.68;;
22270;SDS011;11304;53.520;10.104;2023-05-10T16:19:50;6.65;;;4.97;;
22270;SDS011;11304;53.520;10.104;2023-05-10T16:22:16;7.15;;;6.20;;
22270;SDS011;11304;53.520;10.104;2023-05-10T16:24:43;6.97;;;6.28;;
22270;SDS011;11304;53.520;10.104;2023-05-10T16:27:09;7.13;;;6.30;;
22270;SDS011;11304;53.520;10.104;2023-05-10T16:29:37;8.00;;;6.90;;
22270;SDS011;11304;53.520;10.104;2023-05-10T16:32:03;7.55;;;6.22;;
22270;SDS011;11304;53.520;10.104;2023-05-10T16:34:29;6.95;;;6.18;;
22270;SDS011;11304;53.520;10.104;2023-05-10T16:36:55;8.38;;;6.68;;
22270;SDS011;11304;53.520;10.104;2023-05-10T16:39:21;8.48;;;5.78;;
22270;SDS011;11304;53.520;10.104;2023-05-10T16:41:48;6.28;;;5.65;;